sensor_id;sensor_type;location;lat;lon;timestamp;P1;durP1;ratioP1;P2;durP2;ratioP2
31424;SDS011;18054;51.572;7.372;2024-03-02T00:00:32;3.47;;;1.80;;
31424;SDS011;18054;51.572;7.372;2024-03-02T00:03:00;5.53;;;1.92;;
31424;SDS011;18054;51.572;7.372;2024-03-02T00:05:27;5.97;;;1.65;;
31424;SDS011;18054;51.572;7.372;2024-03-02T00:07:55;3.58;;;1.75;;
31424;SDS011;18054;51.572;7.372;2024-03-02T00:10:36;4.85;;;1.92;;
31424;SDS011;18054;51.572;7.372;2024-03-02T00:13:06;5.15;;;2.17;;
31424;SDS011;18054;51.572;7.372;2024-03-02T00:15:39;4.22;;;2.00;;
31424;SDS011;18054;51.572;7.372;2024-03-02T00:18:07;3.92;;;1.80;;
31424;SDS011;18054;51.572;7.372;2024-03-02T00:20:35;3.97;;;1.88;;
31424;SDS011;18054;51.572;7.372;2024-03-02T00:23:03;6.55;;;2.25;;
31424;SDS011;18054;51.572;7.372;2024-03-02T00:25:36;5.88;;;2.15;;
31424;SDS011;18054;51.572;7.372;2024-03-02T00:28:04;4.13;;;1.85;;
31424;SDS011;18054;51.572;7.372;2024-03-02T00:33:24;3.50;;;1.63;;
31424;SDS011;18054;51.572;7.372;2024-03-02T00:35:54;5.18;;;2.30;;
31424;SDS011;18054;51.572;7.372;2024-03-02T00:38:21;4.78;;;1.77;;
31424;SDS011;18054;51.572;7.372;2024-03-02T00:40:50;5.30;;;2.03;;
31424;SDS011;18054;51.572;7.372;2024-03-02T00:43:30;4.43;;;2.25;;
31424;SDS011;18054;51.572;7.372;2024-03-02T00:46:04;4.22;;;1.80;;
31424;SDS011;18054;51.572;7.372;2024-03-02T00:48:33;2.38;;;1.35;;
31424;SDS011;18054;51.572;7.372;2024-03-02T00:51:02;4.75;;;1.75;;
31424;SDS011;18054;51.572;7.372;2024-03-02T00:53:31;5.78;;;1.70;;
31424;SDS011;18054;51.572;7.372;2024-03-02T00:55:59;5.40;;;1.73;;
31424;SDS011;18054;51.572;7.372;2024-03-02T00:58:26;5.22;;;1.83;;
31424;SDS011;18054;51.572;7.372;2024-03-02T01:02:34;3.60;;;1.33;;
31424;SDS011;18054;51.572;7.372;2024-03-02T01:05:02;5.05;;;1.75;;
31424;SDS011;18054;51.572;7.372;2024-03-02T01:07:31;3.88;;;1.67;;
31424;SDS011;18054;51.572;7.372;2024-03-02T01:09:59;3.80;;;1.58;;
31424;SDS011;18054;51.572;7.372;2024-03-02T01:12:26;3.65;;;1.83;;
31424;SDS011;18054;51.572;7.372;2024-03-02T01:14:54;4.70;;;1.65;;
31424;SDS011;18054;51.572;7.372;2024-03-02T01:17:21;3.28;;;1.30;;
31424;SDS011;18054;51.572;7.372;2024-03-02T01:19:50;2.47;;;1.40;;
31424;SDS011;18054;51.572;7.372;2024-03-02T01:24:49;4.57;;;1.48;;
31424;SDS011;18054;51.572;7.372;2024-03-02T01:27:17;5.78;;;2.70;;
31424;SDS011;18054;51.572;7.372;2024-03-02T01:29:45;4.07;;;1.50;;
31424;SDS011;18054;51.572;7.372;2024-03-02T01:32:12;5.75;;;1.90;;
31424;SDS011;18054;51.572;7.372;2024-03-02T01:34:40;4.57;;;1.90;;
31424;SDS011;18054;51.572;7.372;2024-03-02T01:37:08;3.65;;;1.65;;
31424;SDS011;18054;51.572;7.372;2024-03-02T01:39:37;5.22;;;1.60;;
31424;SDS011;18054;51.572;7.372;2024-03-02T01:42:04;5.32;;;1.90;;
31424;SDS011;18054;51.572;7.372;2024-03-02T01:44:32;3.78;;;2.00;;
31424;SDS011;18054;51.572;7.372;2024-03-02T01:46:59;4.18;;;1.85;;
31424;SDS011;18054;51.572;7.372;2024-03-02T01:49:27;5.30;;;1.63;;
31424;SDS011;18054;51.572;7.372;2024-03-02T01:51:54;6.45;;;1.58;;
31424;SDS011;18054;51.572;7.372;2024-03-02T01:54:23;3.47;;;1.60;;
31424;SDS011;18054;51.572;7.372;2024-03-02T01:56:51;3.38;;;1.50;;
31424;SDS011;18054;51.572;7.372;2024-03-02T01:59:18;4.28;;;2.15;;
31424;SDS011;18054;51.572;7.372;2024-03-02T02:01:46;5.75;;;1.85;;
31424;SDS011;18054;51.572;7.372;2024-03-02T02:04:13;2.97;;;1.10;;
31424;SDS011;18054;51.572;7.372;2024-03-02T02:06:41;5.10;;;1.45;;
31424;SDS011;18054;51.572;7.372;2024-03-02T02:09:08;3.50;;;1.60;;
31424;SDS011;18054;51.572;7.372;2024-03-02T02:11:37;3.50;;;1.52;;
31424;SDS011;18054;51.572;7.372;2024-03-02T02:14:06;3.65;;;1.58;;
31424;SDS011;18054;51.572;7.372;2024-03-02T02:16:33;5.13;;;1.50;;
31424;SDS011;18054;51.572;7.372;2024-03-02T02:19:00;3.28;;;1.58;;
31424;SDS011;18054;51.572;7.372;2024-03-02T02:21:29;4.88;;;1.88;;
31424;SDS011;18054;51.572;7.372;2024-03-02T02:23:57;4.88;;;1.40;;
31424;SDS011;18054;51.572;7.372;2024-03-02T02:26:24;3.78;;;1.70;;
31424;SDS011;18054;51.572;7.372;2024-03-02T02:28:52;4.85;;;1.90;;
31424;SDS011;18054;51.572;7.372;2024-03-02T02:31:19;3.20;;;1.50;;
31424;SDS011;18054;51.572;7.372;2024-03-02T02:33:46;5.95;;;1.83;;
31424;SDS011;18054;51.572;7.372;2024-03-02T02:36:14;3.85;;;1.48;;
31424;SDS011;18054;51.572;7.372;2024-03-02T02:38:44;3.15;;;1.63;;
31424;SDS011;18054;51.572;7.372;2024-03-02T02:41:11;5.10;;;1.70;;
31424;SDS011;18054;51.572;7.372;2024-03-02T02:43:39;6.40;;;1.67;;
31424;SDS011;18054;51.572;7.372;2024-03-02T02:46:06;5.43;;;1.70;;
31424;SDS011;18054;51.572;7.372;2024-03-02T02:48:34;7.38;;;1.60;;
31424;SDS011;18054;51.572;7.372;2024-03-02T02:51:01;6.85;;;1.55;;
31424;SDS011;18054;51.572;7.372;2024-03-02T02:53:29;3.42;;;1.40;;
31424;SDS011;18054;51.572;7.372;2024-03-02T02:55:57;5.38;;;1.80;;
31424;SDS011;18054;51.572;7.372;2024-03-02T02:58:25;5.00;;;1.58;;
31424;SDS011;18054;51.572;7.372;2024-03-02T03:00:53;2.75;;;1.30;;
31424;SDS011;18054;51.572;7.372;2024-03-02T03:03:23;6.38;;;1.70;;
31424;SDS011;18054;51.572;7.372;2024-03-02T03:05:50;7.47;;;1.70;;
31424;SDS011;18054;51.572;7.372;2024-03-02T03:08:17;7.20;;;2.08;;
31424;SDS011;18054;51.572;7.372;2024-03-02T03:10:45;4.57;;;1.70;;
31424;SDS011;18054;51.572;7.372;2024-03-02T03:13:14;4.65;;;1.77;;
31424;SDS011;18054;51.572;7.372;2024-03-02T03:15:42;2.83;;;1.38;;
31424;SDS011;18054;51.572;7.372;2024-03-02T03:18:09;3.67;;;1.30;;
31424;SDS011;18054;51.572;7.372;2024-03-02T03:20:37;6.22;;;1.90;;
31424;SDS011;18054;51.572;7.372;2024-03-02T03:23:05;6.57;;;1.45;;
31424;SDS011;18054;51.572;7.372;2024-03-02T03:28:00;5.15;;;1.42;;
31424;SDS011;18054;51.572;7.372;2024-03-02T03:30:31;5.97;;;1.52;;
31424;SDS011;18054;51.572;7.372;2024-03-02T03:32:58;5.03;;;1.40;;
31424;SDS011;18054;51.572;7.372;2024-03-02T03:35:26;5.22;;;2.10;;
31424;SDS011;18054;51.572;7.372;2024-03-02T03:37:53;4.50;;;1.30;;
31424;SDS011;18054;51.572;7.372;2024-03-02T03:40:21;2.55;;;1.17;;
31424;SDS011;18054;51.572;7.372;2024-03-02T03:42:48;3.15;;;1.33;;
31424;SDS011;18054;51.572;7.372;2024-03-02T03:45:16;6.80;;;1.55;;
31424;SDS011;18054;51.572;7.372;2024-03-02T03:47:45;3.63;;;1.08;;
31424;SDS011;18054;51.572;7.372;2024-03-02T03:50:13;3.25;;;1.33;;
31424;SDS011;18054;51.572;7.372;2024-03-02T03:52:40;3.38;;;1.20;;
31424;SDS011;18054;51.572;7.372;2024-03-02T03:55:08;8.77;;;1.60;;
31424;SDS011;18054;51.572;7.372;2024-03-02T03:57:36;2.03;;;1.02;;
31424;SDS011;18054;51.572;7.372;2024-03-02T04:00:04;5.70;;;1.30;;
31424;SDS011;18054;51.572;7.372;2024-03-02T04:02:38;4.95;;;1.15;;
31424;SDS011;18054;51.572;7.372;2024-03-02T04:05:08;4.72;;;1.20;;
31424;SDS011;18054;51.572;7.372;2024-03-02T04:07:37;2.03;;;0.98;;
31424;SDS011;18054;51.572;7.372;2024-03-02T04:10:09;9.88;;;1.40;;
31424;SDS011;18054;51.572;7.372;2024-03-02T04:12:38;4.60;;;1.35;;
31424;SDS011;18054;51.572;7.372;2024-03-02T04:15:06;4.38;;;1.30;;
31424;SDS011;18054;51.572;7.372;2024-03-02T04:17:33;5.68;;;1.50;;
31424;SDS011;18054;51.572;7.372;2024-03-02T04:20:02;7.47;;;1.40;;
31424;SDS011;18054;51.572;7.372;2024-03-02T04:22:34;2.42;;;1.08;;
31424;SDS011;18054;51.572;7.372;2024-03-02T04:25:02;5.57;;;1.40;;
31424;SDS011;18054;51.572;7.372;2024-03-02T04:27:31;3.90;;;1.60;;
31424;SDS011;18054;51.572;7.372;2024-03-02T04:29:59;4.43;;;1.35;;
31424;SDS011;18054;51.572;7.372;2024-03-02T04:32:27;4.25;;;1.33;;
31424;SDS011;18054;51.572;7.372;2024-03-02T04:34:54;3.03;;;1.20;;
31424;SDS011;18054;51.572;7.372;2024-03-02T04:37:22;8.25;;;1.83;;
31424;SDS011;18054;51.572;7.372;2024-03-02T04:39:51;2.47;;;1.10;;
31424;SDS011;18054;51.572;7.372;2024-03-02T04:42:18;2.55;;;1.27;;
31424;SDS011;18054;51.572;7.372;2024-03-02T04:44:46;4.82;;;1.73;;
31424;SDS011;18054;51.572;7.372;2024-03-02T04:47:13;3.58;;;1.23;;
31424;SDS011;18054;51.572;7.372;2024-03-02T04:49:41;5.47;;;1.27;;
31424;SDS011;18054;51.572;7.372;2024-03-02T04:52:08;5.07;;;1.48;;
31424;SDS011;18054;51.572;7.372;2024-03-02T04:54:36;8.23;;;1.48;;
31424;SDS011;18054;51.572;7.372;2024-03-02T04:59:52;3.35;;;1.17;;
31424;SDS011;18054;51.572;7.372;2024-03-02T05:02:20;4.30;;;1.20;;
31424;SDS011;18054;51.572;7.372;2024-03-02T05:04:47;4.85;;;1.23;;
31424;SDS011;18054;51.572;7.372;2024-03-02T05:07:15;4.60;;;1.10;;
31424;SDS011;18054;51.572;7.372;2024-03-02T05:09:42;4.00;;;0.95;;
31424;SDS011;18054;51.572;7.372;2024-03-02T05:12:10;5.97;;;1.10;;
31424;SDS011;18054;51.572;7.372;2024-03-02T05:14:56;3.55;;;1.25;;
31424;SDS011;18054;51.572;7.372;2024-03-02T05:17:24;4.65;;;1.30;;
31424;SDS011;18054;51.572;7.372;2024-03-02T05:19:51;3.80;;;1.30;;
31424;SDS011;18054;51.572;7.372;2024-03-02T05:22:19;2.63;;;1.20;;
31424;SDS011;18054;51.572;7.372;2024-03-02T05:24:46;4.63;;;1.60;;
31424;SDS011;18054;51.572;7.372;2024-03-02T05:27:14;5.63;;;1.48;;
31424;SDS011;18054;51.572;7.372;2024-03-02T05:29:42;3.88;;;1.33;;
31424;SDS011;18054;51.572;7.372;2024-03-02T05:32:10;6.18;;;1.77;;
31424;SDS011;18054;51.572;7.372;2024-03-02T05:34:38;7.65;;;1.45;;
31424;SDS011;18054;51.572;7.372;2024-03-02T05:37:06;3.65;;;1.20;;
31424;SDS011;18054;51.572;7.372;2024-03-02T05:39:33;9.32;;;1.73;;
31424;SDS011;18054;51.572;7.372;2024-03-02T05:42:01;5.63;;;1.67;;
31424;SDS011;18054;51.572;7.372;2024-03-02T05:44:29;4.55;;;1.77;;
31424;SDS011;18054;51.572;7.372;2024-03-02T05:46:57;3.63;;;1.40;;
31424;SDS011;18054;51.572;7.372;2024-03-02T05:49:25;5.05;;;1.90;;
31424;SDS011;18054;51.572;7.372;2024-03-02T05:51:53;4.13;;;1.88;;
31424;SDS011;18054;51.572;7.372;2024-03-02T05:54:20;4.47;;;1.95;;
31424;SDS011;18054;51.572;7.372;2024-03-02T05:56:48;3.67;;;1.67;;
31424;SDS011;18054;51.572;7.372;2024-03-02T05:59:15;5.43;;;1.83;;
31424;SDS011;18054;51.572;7.372;2024-03-02T06:01:43;5.65;;;1.80;;
31424;SDS011;18054;51.572;7.372;2024-03-02T06:04:12;4.07;;;1.65;;
31424;SDS011;18054;51.572;7.372;2024-03-02T06:09:09;5.78;;;1.65;;
31424;SDS011;18054;51.572;7.372;2024-03-02T06:11:39;7.82;;;1.73;;
31424;SDS011;18054;51.572;7.372;2024-03-02T06:16:34;4.45;;;1.92;;
31424;SDS011;18054;51.572;7.372;2024-03-02T06:19:02;6.68;;;2.42;;
31424;SDS011;18054;51.572;7.372;2024-03-02T06:23:57;5.82;;;2.03;;
31424;SDS011;18054;51.572;7.372;2024-03-02T06:26:26;7.40;;;2.25;;
31424;SDS011;18054;51.572;7.372;2024-03-02T06:28:55;9.10;;;2.15;;
31424;SDS011;18054;51.572;7.372;2024-03-02T06:31:22;7.18;;;2.17;;
31424;SDS011;18054;51.572;7.372;2024-03-02T06:33:50;4.68;;;2.10;;
31424;SDS011;18054;51.572;7.372;2024-03-02T06:36:17;5.20;;;2.30;;
31424;SDS011;18054;51.572;7.372;2024-03-02T06:38:45;5.15;;;2.47;;
31424;SDS011;18054;51.572;7.372;2024-03-02T06:41:12;9.10;;;2.25;;
31424;SDS011;18054;51.572;7.372;2024-03-02T06:43:41;6.72;;;2.30;;
31424;SDS011;18054;51.572;7.372;2024-03-02T06:46:09;6.82;;;2.28;;
31424;SDS011;18054;51.572;7.372;2024-03-02T06:48:40;4.68;;;2.30;;
31424;SDS011;18054;51.572;7.372;2024-03-02T06:51:08;8.32;;;3.15;;
31424;SDS011;18054;51.572;7.372;2024-03-02T06:53:35;8.65;;;2.28;;
31424;SDS011;18054;51.572;7.372;2024-03-02T06:56:03;5.82;;;2.35;;
31424;SDS011;18054;51.572;7.372;2024-03-02T07:00:59;8.25;;;2.25;;
31424;SDS011;18054;51.572;7.372;2024-03-02T07:03:27;13.15;;;2.55;;
31424;SDS011;18054;51.572;7.372;2024-03-02T07:05:55;15.98;;;2.83;;
31424;SDS011;18054;51.572;7.372;2024-03-02T07:08:23;4.68;;;2.13;;
31424;SDS011;18054;51.572;7.372;2024-03-02T07:10:51;8.98;;;2.80;;
31424;SDS011;18054;51.572;7.372;2024-03-02T07:13:18;6.38;;;2.55;;
31424;SDS011;18054;51.572;7.372;2024-03-02T07:15:46;8.43;;;2.80;;
31424;SDS011;18054;51.572;7.372;2024-03-02T07:18:38;6.03;;;2.40;;
31424;SDS011;18054;51.572;7.372;2024-03-02T07:21:08;5.50;;;2.40;;
31424;SDS011;18054;51.572;7.372;2024-03-02T07:23:35;6.47;;;2.90;;
31424;SDS011;18054;51.572;7.372;2024-03-02T07:26:05;5.90;;;2.60;;
31424;SDS011;18054;51.572;7.372;2024-03-02T07:28:35;6.50;;;2.83;;
31424;SDS011;18054;51.572;7.372;2024-03-02T07:31:03;8.45;;;2.47;;
31424;SDS011;18054;51.572;7.372;2024-03-02T07:33:31;7.13;;;3.20;;
31424;SDS011;18054;51.572;7.372;2024-03-02T07:36:00;10.38;;;2.42;;
31424;SDS011;18054;51.572;7.372;2024-03-02T07:38:30;5.50;;;2.75;;
31424;SDS011;18054;51.572;7.372;2024-03-02T07:40:59;6.57;;;2.72;;
31424;SDS011;18054;51.572;7.372;2024-03-02T07:45:54;6.43;;;2.58;;
31424;SDS011;18054;51.572;7.372;2024-03-02T07:48:23;6.60;;;2.50;;
31424;SDS011;18054;51.572;7.372;2024-03-02T07:50:51;6.63;;;2.83;;
31424;SDS011;18054;51.572;7.372;2024-03-02T07:53:20;8.27;;;2.95;;
31424;SDS011;18054;51.572;7.372;2024-03-02T07:55:48;6.03;;;2.50;;
31424;SDS011;18054;51.572;7.372;2024-03-02T07:58:15;5.97;;;2.75;;
31424;SDS011;18054;51.572;7.372;2024-03-02T08:00:45;7.63;;;2.78;;
31424;SDS011;18054;51.572;7.372;2024-03-02T08:03:12;6.43;;;3.30;;
31424;SDS011;18054;51.572;7.372;2024-03-02T08:05:40;11.10;;;3.30;;
31424;SDS011;18054;51.572;7.372;2024-03-02T08:08:07;6.25;;;2.47;;
31424;SDS011;18054;51.572;7.372;2024-03-02T08:10:36;5.85;;;2.58;;
31424;SDS011;18054;51.572;7.372;2024-03-02T08:13:04;9.80;;;2.80;;
31424;SDS011;18054;51.572;7.372;2024-03-02T08:15:31;5.70;;;2.50;;
31424;SDS011;18054;51.572;7.372;2024-03-02T08:17:59;10.52;;;3.15;;
31424;SDS011;18054;51.572;7.372;2024-03-02T08:20:26;7.68;;;3.20;;
31424;SDS011;18054;51.572;7.372;2024-03-02T08:22:54;4.95;;;2.47;;
31424;SDS011;18054;51.572;7.372;2024-03-02T08:25:22;9.40;;;2.95;;
31424;SDS011;18054;51.572;7.372;2024-03-02T08:27:51;6.03;;;2.83;;
31424;SDS011;18054;51.572;7.372;2024-03-02T08:30:18;8.93;;;3.60;;
31424;SDS011;18054;51.572;7.372;2024-03-02T08:32:46;6.25;;;2.78;;
31424;SDS011;18054;51.572;7.372;2024-03-02T08:35:14;5.85;;;2.50;;
31424;SDS011;18054;51.572;7.372;2024-03-02T08:37:41;6.63;;;3.03;;
31424;SDS011;18054;51.572;7.372;2024-03-02T08:40:09;8.57;;;2.88;;
31424;SDS011;18054;51.572;7.372;2024-03-02T08:42:41;5.10;;;2.10;;
31424;SDS011;18054;51.572;7.372;2024-03-02T08:45:10;6.38;;;2.47;;
31424;SDS011;18054;51.572;7.372;2024-03-02T08:47:38;5.32;;;1.90;;
31424;SDS011;18054;51.572;7.372;2024-03-02T08:50:06;7.18;;;2.30;;
31424;SDS011;18054;51.572;7.372;2024-03-02T08:52:34;7.20;;;2.95;;
31424;SDS011;18054;51.572;7.372;2024-03-02T08:55:04;8.45;;;3.40;;
31424;SDS011;18054;51.572;7.372;2024-03-02T08:57:33;6.80;;;1.92;;
31424;SDS011;18054;51.572;7.372;2024-03-02T09:02:30;5.60;;;2.22;;
31424;SDS011;18054;51.572;7.372;2024-03-02T09:04:58;6.05;;;2.05;;
31424;SDS011;18054;51.572;7.372;2024-03-02T09:07:25;7.18;;;2.28;;
31424;SDS011;18054;51.572;7.372;2024-03-02T09:09:53;7.82;;;1.88;;
31424;SDS011;18054;51.572;7.372;2024-03-02T09:12:20;4.68;;;2.08;;
31424;SDS011;18054;51.572;7.372;2024-03-02T09:14:48;6.82;;;2.63;;
31424;SDS011;18054;51.572;7.372;2024-03-02T09:17:15;5.53;;;2.28;;
31424;SDS011;18054;51.572;7.372;2024-03-02T09:19:44;7.00;;;2.40;;
31424;SDS011;18054;51.572;7.372;2024-03-02T09:22:12;8.32;;;1.88;;
31424;SDS011;18054;51.572;7.372;2024-03-02T09:24:39;6.57;;;1.80;;
31424;SDS011;18054;51.572;7.372;2024-03-02T09:27:07;4.75;;;2.15;;
31424;SDS011;18054;51.572;7.372;2024-03-02T09:29:35;7.35;;;2.97;;
31424;SDS011;18054;51.572;7.372;2024-03-02T09:32:03;6.28;;;2.85;;
31424;SDS011;18054;51.572;7.372;2024-03-02T09:36:59;5.35;;;2.00;;
31424;SDS011;18054;51.572;7.372;2024-03-02T09:39:27;3.70;;;1.60;;
31424;SDS011;18054;51.572;7.372;2024-03-02T09:41:54;4.20;;;1.50;;
31424;SDS011;18054;51.572;7.372;2024-03-02T09:46:51;6.22;;;1.77;;
31424;SDS011;18054;51.572;7.372;2024-03-02T09:49:18;4.45;;;1.67;;
31424;SDS011;18054;51.572;7.372;2024-03-02T09:51:47;4.30;;;1.70;;
31424;SDS011;18054;51.572;7.372;2024-03-02T09:54:16;4.63;;;1.60;;
31424;SDS011;18054;51.572;7.372;2024-03-02T09:56:49;4.63;;;1.45;;
31424;SDS011;18054;51.572;7.372;2024-03-02T10:04:34;3.85;;;1.30;;
31424;SDS011;18054;51.572;7.372;2024-03-02T10:07:12;2.03;;;0.98;;
31424;SDS011;18054;51.572;7.372;2024-03-02T10:09:41;2.22;;;1.05;;
31424;SDS011;18054;51.572;7.372;2024-03-02T10:12:09;4.68;;;1.25;;
31424;SDS011;18054;51.572;7.372;2024-03-02T10:14:37;12.07;;;1.27;;
31424;SDS011;18054;51.572;7.372;2024-03-02T10:19:33;2.42;;;1.05;;
31424;SDS011;18054;51.572;7.372;2024-03-02T10:22:01;4.90;;;1.10;;
31424;SDS011;18054;51.572;7.372;2024-03-02T10:24:34;2.83;;;1.27;;
31424;SDS011;18054;51.572;7.372;2024-03-02T10:27:07;3.38;;;1.00;;
31424;SDS011;18054;51.572;7.372;2024-03-02T10:29:36;5.10;;;1.15;;
31424;SDS011;18054;51.572;7.372;2024-03-02T10:32:04;2.25;;;1.00;;
31424;SDS011;18054;51.572;7.372;2024-03-02T10:34:32;3.22;;;1.48;;
31424;SDS011;18054;51.572;7.372;2024-03-02T10:37:00;4.70;;;1.50;;
31424;SDS011;18054;51.572;7.372;2024-03-02T10:39:31;4.50;;;1.10;;
31424;SDS011;18054;51.572;7.372;2024-03-02T10:42:02;2.53;;;1.00;;
31424;SDS011;18054;51.572;7.372;2024-03-02T10:44:31;2.67;;;1.10;;
31424;SDS011;18054;51.572;7.372;2024-03-02T10:47:00;4.50;;;1.55;;
31424;SDS011;18054;51.572;7.372;2024-03-02T10:49:28;4.13;;;1.75;;
31424;SDS011;18054;51.572;7.372;2024-03-02T10:51:56;6.63;;;1.58;;
31424;SDS011;18054;51.572;7.372;2024-03-02T10:54:24;4.35;;;1.20;;
31424;SDS011;18054;51.572;7.372;2024-03-02T10:56:55;2.90;;;0.77;;
31424;SDS011;18054;51.572;7.372;2024-03-02T10:59:24;5.70;;;1.08;;
31424;SDS011;18054;51.572;7.372;2024-03-02T11:01:55;2.97;;;1.13;;
31424;SDS011;18054;51.572;7.372;2024-03-02T11:04:25;3.20;;;0.98;;
31424;SDS011;18054;51.572;7.372;2024-03-02T11:06:54;7.13;;;1.60;;
31424;SDS011;18054;51.572;7.372;2024-03-02T11:09:25;2.58;;;1.05;;
31424;SDS011;18054;51.572;7.372;2024-03-02T11:11:54;2.90;;;1.13;;
31424;SDS011;18054;51.572;7.372;2024-03-02T11:14:24;4.78;;;0.90;;
31424;SDS011;18054;51.572;7.372;2024-03-02T11:16:51;3.80;;;1.17;;
31424;SDS011;18054;51.572;7.372;2024-03-02T11:19:21;2.95;;;1.13;;
31424;SDS011;18054;51.572;7.372;2024-03-02T11:21:51;1.92;;;0.80;;
31424;SDS011;18054;51.572;7.372;2024-03-02T11:24:28;12.35;;;3.78;;
31424;SDS011;18054;51.572;7.372;2024-03-02T11:27:04;2.92;;;0.90;;
31424;SDS011;18054;51.572;7.372;2024-03-02T11:29:44;4.07;;;1.23;;
31424;SDS011;18054;51.572;7.372;2024-03-02T11:32:19;5.35;;;1.40;;
31424;SDS011;18054;51.572;7.372;2024-03-02T11:34:49;2.00;;;0.80;;
31424;SDS011;18054;51.572;7.372;2024-03-02T11:37:17;4.70;;;0.90;;
31424;SDS011;18054;51.572;7.372;2024-03-02T11:39:45;4.22;;;1.20;;
31424;SDS011;18054;51.572;7.372;2024-03-02T11:44:42;6.18;;;1.98;;
31424;SDS011;18054;51.572;7.372;2024-03-02T11:47:10;3.25;;;1.35;;
31424;SDS011;18054;51.572;7.372;2024-03-02T11:49:41;2.92;;;1.00;;
31424;SDS011;18054;51.572;7.372;2024-03-02T11:52:11;1.75;;;0.70;;
31424;SDS011;18054;51.572;7.372;2024-03-02T11:54:43;5.28;;;1.20;;
31424;SDS011;18054;51.572;7.372;2024-03-02T11:57:14;3.63;;;1.13;;
31424;SDS011;18054;51.572;7.372;2024-03-02T11:59:42;4.82;;;1.00;;
31424;SDS011;18054;51.572;7.372;2024-03-02T12:02:14;2.83;;;0.70;;
31424;SDS011;18054;51.572;7.372;2024-03-02T12:04:42;3.38;;;1.10;;
31424;SDS011;18054;51.572;7.372;2024-03-02T12:07:11;2.78;;;0.93;;
31424;SDS011;18054;51.572;7.372;2024-03-02T12:09:38;1.33;;;0.70;;
31424;SDS011;18054;51.572;7.372;2024-03-02T12:14:34;3.35;;;1.10;;
31424;SDS011;18054;51.572;7.372;2024-03-02T12:17:02;1.42;;;0.88;;
31424;SDS011;18054;51.572;7.372;2024-03-02T12:19:30;3.35;;;1.00;;
31424;SDS011;18054;51.572;7.372;2024-03-02T12:21:56;2.40;;;0.98;;
31424;SDS011;18054;51.572;7.372;2024-03-02T12:24:26;3.80;;;1.08;;
31424;SDS011;18054;51.572;7.372;2024-03-02T12:26:54;1.65;;;0.70;;
31424;SDS011;18054;51.572;7.372;2024-03-02T12:29:22;3.65;;;1.10;;
31424;SDS011;18054;51.572;7.372;2024-03-02T12:31:50;3.80;;;1.05;;
31424;SDS011;18054;51.572;7.372;2024-03-02T12:34:18;2.95;;;0.90;;
31424;SDS011;18054;51.572;7.372;2024-03-02T12:36:46;2.33;;;0.70;;
31424;SDS011;18054;51.572;7.372;2024-03-02T12:39:16;1.85;;;0.77;;
31424;SDS011;18054;51.572;7.372;2024-03-02T12:41:45;3.58;;;1.00;;
31424;SDS011;18054;51.572;7.372;2024-03-02T12:44:13;3.50;;;0.90;;
31424;SDS011;18054;51.572;7.372;2024-03-02T12:46:40;6.22;;;1.40;;
31424;SDS011;18054;51.572;7.372;2024-03-02T12:49:08;1.30;;;0.80;;
31424;SDS011;18054;51.572;7.372;2024-03-02T12:51:37;3.20;;;1.05;;
31424;SDS011;18054;51.572;7.372;2024-03-02T12:54:06;2.95;;;0.88;;
31424;SDS011;18054;51.572;7.372;2024-03-02T12:56:34;1.63;;;0.80;;
31424;SDS011;18054;51.572;7.372;2024-03-02T12:59:03;2.60;;;0.70;;
31424;SDS011;18054;51.572;7.372;2024-03-02T13:01:31;2.03;;;0.80;;
31424;SDS011;18054;51.572;7.372;2024-03-02T13:08:55;2.88;;;1.13;;
31424;SDS011;18054;51.572;7.372;2024-03-02T13:11:23;2.55;;;0.90;;
31424;SDS011;18054;51.572;7.372;2024-03-02T13:13:51;4.70;;;1.00;;
31424;SDS011;18054;51.572;7.372;2024-03-02T13:16:20;1.58;;;0.70;;
31424;SDS011;18054;51.572;7.372;2024-03-02T13:18:57;2.63;;;1.00;;
31424;SDS011;18054;51.572;7.372;2024-03-02T13:21:25;1.95;;;0.82;;
31424;SDS011;18054;51.572;7.372;2024-03-02T13:23:52;4.60;;;0.90;;
31424;SDS011;18054;51.572;7.372;2024-03-02T13:26:20;1.80;;;0.73;;
31424;SDS011;18054;51.572;7.372;2024-03-02T13:28:47;1.73;;;0.80;;
31424;SDS011;18054;51.572;7.372;2024-03-02T13:31:15;3.00;;;0.80;;
31424;SDS011;18054;51.572;7.372;2024-03-02T13:33:43;9.93;;;0.70;;
31424;SDS011;18054;51.572;7.372;2024-03-02T13:36:11;1.48;;;0.73;;
31424;SDS011;18054;51.572;7.372;2024-03-02T13:43:34;3.55;;;1.17;;
31424;SDS011;18054;51.572;7.372;2024-03-02T13:46:03;3.22;;;1.17;;
31424;SDS011;18054;51.572;7.372;2024-03-02T13:48:31;1.60;;;0.70;;
31424;SDS011;18054;51.572;7.372;2024-03-02T13:53:28;0.98;;;0.60;;
31424;SDS011;18054;51.572;7.372;2024-03-02T13:55:55;2.03;;;0.85;;
31424;SDS011;18054;51.572;7.372;2024-03-02T13:58:23;1.15;;;0.60;;
31424;SDS011;18054;51.572;7.372;2024-03-02T14:00:50;2.38;;;1.30;;
31424;SDS011;18054;51.572;7.372;2024-03-02T14:03:18;3.25;;;0.93;;
31424;SDS011;18054;51.572;7.372;2024-03-02T14:05:48;1.30;;;0.80;;
31424;SDS011;18054;51.572;7.372;2024-03-02T14:08:17;2.22;;;0.90;;
31424;SDS011;18054;51.572;7.372;2024-03-02T14:10:46;1.45;;;0.80;;
31424;SDS011;18054;51.572;7.372;2024-03-02T14:13:13;4.32;;;1.10;;
31424;SDS011;18054;51.572;7.372;2024-03-02T14:15:42;2.65;;;1.05;;
31424;SDS011;18054;51.572;7.372;2024-03-02T14:18:09;3.00;;;1.00;;
31424;SDS011;18054;51.572;7.372;2024-03-02T14:20:37;7.47;;;1.55;;
31424;SDS011;18054;51.572;7.372;2024-03-02T14:23:04;4.18;;;0.80;;
31424;SDS011;18054;51.572;7.372;2024-03-02T14:25:32;2.78;;;0.90;;
31424;SDS011;18054;51.572;7.372;2024-03-02T14:28:01;2.15;;;0.70;;
31424;SDS011;18054;51.572;7.372;2024-03-02T14:30:49;3.22;;;1.10;;
31424;SDS011;18054;51.572;7.372;2024-03-02T14:35:44;2.33;;;0.80;;
31424;SDS011;18054;51.572;7.372;2024-03-02T14:38:11;1.92;;;0.73;;
31424;SDS011;18054;51.572;7.372;2024-03-02T14:43:08;3.33;;;0.68;;
31424;SDS011;18054;51.572;7.372;2024-03-02T14:45:35;2.70;;;1.20;;
31424;SDS011;18054;51.572;7.372;2024-03-02T14:48:03;3.05;;;1.17;;
31424;SDS011;18054;51.572;7.372;2024-03-02T14:50:31;3.33;;;1.02;;
31424;SDS011;18054;51.572;7.372;2024-03-02T14:52:59;3.47;;;0.90;;
31424;SDS011;18054;51.572;7.372;2024-03-02T14:57:54;5.10;;;1.00;;
31424;SDS011;18054;51.572;7.372;2024-03-02T15:00:23;1.60;;;0.80;;
31424;SDS011;18054;51.572;7.372;2024-03-02T15:02:51;2.35;;;0.93;;
31424;SDS011;18054;51.572;7.372;2024-03-02T15:05:18;3.78;;;1.13;;
31424;SDS011;18054;51.572;7.372;2024-03-02T15:07:46;3.28;;;1.40;;
31424;SDS011;18054;51.572;7.372;2024-03-02T15:10:14;2.55;;;1.25;;
31424;SDS011;18054;51.572;7.372;2024-03-02T15:12:41;3.08;;;1.30;;
31424;SDS011;18054;51.572;7.372;2024-03-02T15:15:09;4.75;;;1.00;;
31424;SDS011;18054;51.572;7.372;2024-03-02T15:17:39;5.60;;;1.33;;
31424;SDS011;18054;51.572;7.372;2024-03-02T15:20:07;9.23;;;4.20;;
31424;SDS011;18054;51.572;7.372;2024-03-02T15:22:34;3.55;;;1.15;;
31424;SDS011;18054;51.572;7.372;2024-03-02T15:25:03;2.00;;;0.95;;
31424;SDS011;18054;51.572;7.372;2024-03-02T15:27:30;9.90;;;3.05;;
31424;SDS011;18054;51.572;7.372;2024-03-02T15:29:58;3.60;;;1.10;;
31424;SDS011;18054;51.572;7.372;2024-03-02T15:32:26;3.42;;;1.25;;
31424;SDS011;18054;51.572;7.372;2024-03-02T15:37:22;4.88;;;1.63;;
31424;SDS011;18054;51.572;7.372;2024-03-02T15:39:50;2.50;;;1.10;;
31424;SDS011;18054;51.572;7.372;2024-03-02T15:42:17;4.53;;;1.33;;
31424;SDS011;18054;51.572;7.372;2024-03-02T15:44:45;5.70;;;1.70;;
31424;SDS011;18054;51.572;7.372;2024-03-02T15:47:12;3.92;;;1.63;;
31424;SDS011;18054;51.572;7.372;2024-03-02T15:49:40;4.50;;;1.45;;
31424;SDS011;18054;51.572;7.372;2024-03-02T15:52:08;3.67;;;1.65;;
31424;SDS011;18054;51.572;7.372;2024-03-02T15:57:04;3.88;;;1.60;;
31424;SDS011;18054;51.572;7.372;2024-03-02T15:59:32;7.05;;;1.70;;
31424;SDS011;18054;51.572;7.372;2024-03-02T16:01:59;6.93;;;1.67;;
31424;SDS011;18054;51.572;7.372;2024-03-02T16:04:27;5.20;;;2.10;;